sensor_id;sensor_type;location;lat;lon;timestamp;P1;durP1;ratioP1;P2;durP2;ratioP2
19199;SDS011;9732;52.498;5.408;2022-11-15T00:01:56;42.43;;;18.43;;
19199;SDS011;9732;52.498;5.408;2022-11-15T00:04:23;41.07;;;18.20;;
19199;SDS011;9732;52.498;5.408;2022-11-15T00:06:49;40.73;;;19.40;;
19199;SDS011;9732;52.498;5.408;2022-11-15T00:09:16;37.77;;;19.13;;
19199;SDS011;9732;52.498;5.408;2022-11-15T00:11:43;42.40;;;18.80;;
19199;SDS011;9732;52.498;5.408;2022-11-15T00:14:11;44.77;;;19.10;;
19199;SDS011;9732;52.498;5.408;2022-11-15T00:16:38;45.23;;;19.73;;
19199;SDS011;9732;52.498;5.408;2022-11-15T00:19:04;39.13;;;18.80;;
19199;SDS011;9732;52.498;5.408;2022-11-15T00:21:31;41.87;;;19.00;;
19199;SDS011;9732;52.498;5.408;2022-11-15T00:23:58;43.27;;;19.07;;
19199;SDS011;9732;52.498;5.408;2022-11-15T00:26:25;46.53;;;18.90;;
19199;SDS011;9732;52.498;5.408;2022-11-15T00:28:51;53.57;;;19.67;;
19199;SDS011;9732;52.498;5.408;2022-11-15T00:31:20;44.60;;;19.67;;
19199;SDS011;9732;52.498;5.408;2022-11-15T00:33:46;53.00;;;19.50;;
19199;SDS011;9732;52.498;5.408;2022-11-15T00:36:13;46.10;;;20.07;;
19199;SDS011;9732;52.498;5.408;2022-11-15T00:38:40;54.07;;;21.67;;
19199;SDS011;9732;52.498;5.408;2022-11-15T00:41:07;49.43;;;20.23;;
19199;SDS011;9732;52.498;5.408;2022-11-15T00:43:34;54.83;;;20.60;;
19199;SDS011;9732;52.498;5.408;2022-11-15T00:46:01;43.63;;;18.73;;
19199;SDS011;9732;52.498;5.408;2022-11-15T00:48:29;57.17;;;20.50;;
19199;SDS011;9732;52.498;5.408;2022-11-15T00:50:56;51.90;;;19.40;;
19199;SDS011;9732;52.498;5.408;2022-11-15T00:53:23;52.40;;;22.33;;
19199;SDS011;9732;52.498;5.408;2022-11-15T00:55:50;53.87;;;20.70;;
19199;SDS011;9732;52.498;5.408;2022-11-15T00:58:17;51.23;;;19.83;;
19199;SDS011;9732;52.498;5.408;2022-11-15T01:00:43;53.90;;;20.50;;
19199;SDS011;9732;52.498;5.408;2022-11-15T01:03:10;51.17;;;21.20;;
19199;SDS011;9732;52.498;5.408;2022-11-15T01:05:38;54.13;;;20.93;;
19199;SDS011;9732;52.498;5.408;2022-11-15T01:08:05;56.17;;;21.43;;
19199;SDS011;9732;52.498;5.408;2022-11-15T01:10:33;51.93;;;21.90;;
19199;SDS011;9732;52.498;5.408;2022-11-15T01:13:00;51.47;;;21.60;;
19199;SDS011;9732;52.498;5.408;2022-11-15T01:15:26;56.87;;;21.47;;
19199;SDS011;9732;52.498;5.408;2022-11-15T01:17:53;57.03;;;21.83;;
19199;SDS011;9732;52.498;5.408;2022-11-15T01:20:20;57.43;;;21.70;;
19199;SDS011;9732;52.498;5.408;2022-11-15T01:22:48;57.50;;;21.57;;
19199;SDS011;9732;52.498;5.408;2022-11-15T01:25:15;56.67;;;20.33;;
19199;SDS011;9732;52.498;5.408;2022-11-15T01:27:42;56.43;;;20.93;;
19199;SDS011;9732;52.498;5.408;2022-11-15T01:30:09;57.00;;;21.10;;
19199;SDS011;9732;52.498;5.408;2022-11-15T01:32:36;54.57;;;20.57;;
19199;SDS011;9732;52.498;5.408;2022-11-15T01:35:02;62.33;;;22.17;;
19199;SDS011;9732;52.498;5.408;2022-11-15T01:37:30;54.50;;;21.97;;
19199;SDS011;9732;52.498;5.408;2022-11-15T01:39:58;50.80;;;20.60;;
19199;SDS011;9732;52.498;5.408;2022-11-15T01:42:24;62.63;;;21.97;;
19199;SDS011;9732;52.498;5.408;2022-11-15T01:44:51;53.40;;;21.20;;
19199;SDS011;9732;52.498;5.408;2022-11-15T01:47:20;62.80;;;21.90;;
19199;SDS011;9732;52.498;5.408;2022-11-15T01:49:52;63.97;;;22.53;;
19199;SDS011;9732;52.498;5.408;2022-11-15T01:52:24;55.67;;;20.60;;
19199;SDS011;9732;52.498;5.408;2022-11-15T01:54:53;53.17;;;20.77;;
19199;SDS011;9732;52.498;5.408;2022-11-15T01:57:27;64.90;;;22.10;;
19199;SDS011;9732;52.498;5.408;2022-11-15T01:59:54;55.90;;;21.13;;
19199;SDS011;9732;52.498;5.408;2022-11-15T02:02:21;58.03;;;22.03;;
19199;SDS011;9732;52.498;5.408;2022-11-15T02:04:48;56.33;;;21.00;;
19199;SDS011;9732;52.498;5.408;2022-11-15T02:07:15;54.60;;;21.50;;
19199;SDS011;9732;52.498;5.408;2022-11-15T02:09:44;63.07;;;21.90;;
19199;SDS011;9732;52.498;5.408;2022-11-15T02:12:14;56.23;;;21.83;;
19199;SDS011;9732;52.498;5.408;2022-11-15T02:14:47;60.47;;;21.83;;
19199;SDS011;9732;52.498;5.408;2022-11-15T02:17:24;62.27;;;20.53;;
19199;SDS011;9732;52.498;5.408;2022-11-15T02:20:22;58.27;;;21.73;;
19199;SDS011;9732;52.498;5.408;2022-11-15T02:23:08;67.50;;;22.90;;
19199;SDS011;9732;52.498;5.408;2022-11-15T02:25:52;66.07;;;22.30;;
19199;SDS011;9732;52.498;5.408;2022-11-15T02:28:50;70.47;;;21.50;;
19199;SDS011;9732;52.498;5.408;2022-11-15T02:31:28;60.50;;;20.70;;
19199;SDS011;9732;52.498;5.408;2022-11-15T02:34:05;62.73;;;21.10;;
19199;SDS011;9732;52.498;5.408;2022-11-15T02:36:40;67.97;;;21.90;;
19199;SDS011;9732;52.498;5.408;2022-11-15T02:39:14;65.90;;;22.37;;
19199;SDS011;9732;52.498;5.408;2022-11-15T02:41:48;64.40;;;22.10;;
19199;SDS011;9732;52.498;5.408;2022-11-15T02:44:21;66.93;;;22.10;;
19199;SDS011;9732;52.498;5.408;2022-11-15T02:46:54;68.17;;;23.53;;
19199;SDS011;9732;52.498;5.408;2022-11-15T02:49:43;63.87;;;22.40;;
19199;SDS011;9732;52.498;5.408;2022-11-15T02:52:14;68.37;;;24.50;;
19199;SDS011;9732;52.498;5.408;2022-11-15T02:54:42;64.20;;;24.33;;
19199;SDS011;9732;52.498;5.408;2022-11-15T02:57:11;66.93;;;24.27;;
19199;SDS011;9732;52.498;5.408;2022-11-15T02:59:48;61.23;;;22.50;;
19199;SDS011;9732;52.498;5.408;2022-11-15T03:02:34;71.47;;;24.03;;
19199;SDS011;9732;52.498;5.408;2022-11-15T03:05:12;68.63;;;24.47;;
19199;SDS011;9732;52.498;5.408;2022-11-15T03:07:47;70.10;;;23.93;;
19199;SDS011;9732;52.498;5.408;2022-11-15T03:10:23;63.83;;;24.63;;
19199;SDS011;9732;52.498;5.408;2022-11-15T03:12:56;70.70;;;24.87;;
19199;SDS011;9732;52.498;5.408;2022-11-15T03:15:26;67.53;;;24.43;;
19199;SDS011;9732;52.498;5.408;2022-11-15T03:18:00;69.53;;;24.73;;
19199;SDS011;9732;52.498;5.408;2022-11-15T03:20:32;80.07;;;26.47;;
19199;SDS011;9732;52.498;5.408;2022-11-15T03:23:02;81.63;;;26.83;;
19199;SDS011;9732;52.498;5.408;2022-11-15T03:25:32;70.90;;;25.77;;
19199;SDS011;9732;52.498;5.408;2022-11-15T03:28:02;80.17;;;28.27;;
19199;SDS011;9732;52.498;5.408;2022-11-15T03:30:31;78.07;;;26.07;;
19199;SDS011;9732;52.498;5.408;2022-11-15T03:33:02;74.80;;;23.97;;
19199;SDS011;9732;52.498;5.408;2022-11-15T03:35:32;70.37;;;24.63;;
19199;SDS011;9732;52.498;5.408;2022-11-15T03:38:04;82.80;;;27.83;;
19199;SDS011;9732;52.498;5.408;2022-11-15T03:40:36;65.63;;;26.63;;
19199;SDS011;9732;52.498;5.408;2022-11-15T03:43:09;72.83;;;28.17;;
19199;SDS011;9732;52.498;5.408;2022-11-15T03:45:43;84.13;;;26.33;;
19199;SDS011;9732;52.498;5.408;2022-11-15T03:48:14;76.40;;;27.33;;
19199;SDS011;9732;52.498;5.408;2022-11-15T03:50:44;73.77;;;28.70;;
19199;SDS011;9732;52.498;5.408;2022-11-15T03:53:12;68.10;;;26.03;;
19199;SDS011;9732;52.498;5.408;2022-11-15T03:55:39;76.40;;;26.50;;
19199;SDS011;9732;52.498;5.408;2022-11-15T03:58:07;76.80;;;26.87;;
19199;SDS011;9732;52.498;5.408;2022-11-15T04:00:34;72.20;;;29.47;;
19199;SDS011;9732;52.498;5.408;2022-11-15T04:03:03;85.13;;;30.83;;
19199;SDS011;9732;52.498;5.408;2022-11-15T04:05:34;76.40;;;28.20;;
19199;SDS011;9732;52.498;5.408;2022-11-15T04:08:02;75.20;;;28.80;;
19199;SDS011;9732;52.498;5.408;2022-11-15T04:10:30;84.50;;;31.20;;
19199;SDS011;9732;52.498;5.408;2022-11-15T04:13:01;80.73;;;30.43;;
19199;SDS011;9732;52.498;5.408;2022-11-15T04:15:29;76.03;;;28.57;;
19199;SDS011;9732;52.498;5.408;2022-11-15T04:17:58;84.27;;;28.10;;
19199;SDS011;9732;52.498;5.408;2022-11-15T04:20:28;87.83;;;30.63;;
19199;SDS011;9732;52.498;5.408;2022-11-15T04:23:16;85.73;;;30.57;;
19199;SDS011;9732;52.498;5.408;2022-11-15T04:26:03;94.23;;;32.70;;
19199;SDS011;9732;52.498;5.408;2022-11-15T04:28:32;94.57;;;30.07;;
19199;SDS011;9732;52.498;5.408;2022-11-15T04:31:00;86.43;;;31.33;;
19199;SDS011;9732;52.498;5.408;2022-11-15T04:33:29;88.67;;;32.43;;
19199;SDS011;9732;52.498;5.408;2022-11-15T04:35:58;94.50;;;31.40;;
19199;SDS011;9732;52.498;5.408;2022-11-15T04:38:46;99.90;;;31.73;;
19199;SDS011;9732;52.498;5.408;2022-11-15T04:41:14;87.20;;;31.93;;
19199;SDS011;9732;52.498;5.408;2022-11-15T04:43:44;89.83;;;32.00;;
19199;SDS011;9732;52.498;5.408;2022-11-15T04:46:14;87.23;;;32.10;;
19199;SDS011;9732;52.498;5.408;2022-11-15T04:48:42;88.77;;;31.03;;
19199;SDS011;9732;52.498;5.408;2022-11-15T04:51:09;94.73;;;33.40;;
19199;SDS011;9732;52.498;5.408;2022-11-15T04:53:37;102.17;;;33.10;;
19199;SDS011;9732;52.498;5.408;2022-11-15T04:56:09;93.43;;;32.43;;
19199;SDS011;9732;52.498;5.408;2022-11-15T04:58:37;84.70;;;31.50;;
19199;SDS011;9732;52.498;5.408;2022-11-15T05:01:07;92.53;;;32.20;;
19199;SDS011;9732;52.498;5.408;2022-11-15T05:03:35;95.60;;;32.97;;
19199;SDS011;9732;52.498;5.408;2022-11-15T05:06:20;93.47;;;32.27;;
19199;SDS011;9732;52.498;5.408;2022-11-15T05:08:48;83.30;;;32.07;;
19199;SDS011;9732;52.498;5.408;2022-11-15T05:11:18;90.00;;;33.07;;
19199;SDS011;9732;52.498;5.408;2022-11-15T05:13:48;85.53;;;33.50;;
19199;SDS011;9732;52.498;5.408;2022-11-15T05:16:15;89.30;;;31.80;;
19199;SDS011;9732;52.498;5.408;2022-11-15T05:18:42;79.70;;;31.07;;
19199;SDS011;9732;52.498;5.408;2022-11-15T05:21:10;75.67;;;31.50;;
19199;SDS011;9732;52.498;5.408;2022-11-15T05:23:40;84.80;;;31.03;;
19199;SDS011;9732;52.498;5.408;2022-11-15T05:26:08;87.83;;;33.43;;
19199;SDS011;9732;52.498;5.408;2022-11-15T05:28:37;90.63;;;32.63;;
19199;SDS011;9732;52.498;5.408;2022-11-15T05:31:04;87.37;;;31.53;;
19199;SDS011;9732;52.498;5.408;2022-11-15T05:33:32;78.47;;;30.97;;
19199;SDS011;9732;52.498;5.408;2022-11-15T05:36:02;80.40;;;31.43;;
19199;SDS011;9732;52.498;5.408;2022-11-15T05:38:33;78.87;;;30.40;;
19199;SDS011;9732;52.498;5.408;2022-11-15T05:41:00;74.50;;;29.73;;
19199;SDS011;9732;52.498;5.408;2022-11-15T05:43:29;74.10;;;31.90;;
19199;SDS011;9732;52.498;5.408;2022-11-15T05:45:58;73.87;;;31.20;;
19199;SDS011;9732;52.498;5.408;2022-11-15T05:48:26;88.33;;;30.07;;
19199;SDS011;9732;52.498;5.408;2022-11-15T05:50:53;65.97;;;29.60;;
19199;SDS011;9732;52.498;5.408;2022-11-15T05:53:20;71.10;;;30.03;;
19199;SDS011;9732;52.498;5.408;2022-11-15T05:55:49;62.70;;;28.70;;
19199;SDS011;9732;52.498;5.408;2022-11-15T05:58:18;68.27;;;28.20;;
19199;SDS011;9732;52.498;5.408;2022-11-15T06:00:46;64.90;;;29.27;;
19199;SDS011;9732;52.498;5.408;2022-11-15T06:03:15;72.20;;;27.77;;
19199;SDS011;9732;52.498;5.408;2022-11-15T06:05:43;66.97;;;29.60;;
19199;SDS011;9732;52.498;5.408;2022-11-15T06:08:12;63.20;;;27.73;;
19199;SDS011;9732;52.498;5.408;2022-11-15T06:10:40;69.60;;;29.40;;
19199;SDS011;9732;52.498;5.408;2022-11-15T06:13:08;67.37;;;29.23;;
19199;SDS011;9732;52.498;5.408;2022-11-15T06:15:35;61.07;;;27.30;;
19199;SDS011;9732;52.498;5.408;2022-11-15T06:18:03;61.80;;;26.87;;
19199;SDS011;9732;52.498;5.408;2022-11-15T06:20:32;62.60;;;28.30;;
19199;SDS011;9732;52.498;5.408;2022-11-15T06:23:00;58.43;;;26.73;;
19199;SDS011;9732;52.498;5.408;2022-11-15T06:25:28;57.37;;;27.20;;
19199;SDS011;9732;52.498;5.408;2022-11-15T06:27:56;62.00;;;26.33;;
19199;SDS011;9732;52.498;5.408;2022-11-15T06:30:25;60.67;;;26.17;;
19199;SDS011;9732;52.498;5.408;2022-11-15T06:32:54;63.53;;;25.77;;
19199;SDS011;9732;52.498;5.408;2022-11-15T06:35:25;62.93;;;26.87;;
19199;SDS011;9732;52.498;5.408;2022-11-15T06:37:53;60.33;;;26.93;;
19199;SDS011;9732;52.498;5.408;2022-11-15T06:40:20;56.43;;;24.57;;
19199;SDS011;9732;52.498;5.408;2022-11-15T06:42:47;54.47;;;25.70;;
19199;SDS011;9732;52.498;5.408;2022-11-15T06:45:13;59.13;;;25.80;;
19199;SDS011;9732;52.498;5.408;2022-11-15T06:47:44;56.20;;;25.83;;
19199;SDS011;9732;52.498;5.408;2022-11-15T06:50:11;59.07;;;25.80;;
19199;SDS011;9732;52.498;5.408;2022-11-15T06:52:38;59.43;;;25.43;;
19199;SDS011;9732;52.498;5.408;2022-11-15T06:55:07;61.30;;;26.87;;
19199;SDS011;9732;52.498;5.408;2022-11-15T06:57:34;68.23;;;30.63;;
19199;SDS011;9732;52.498;5.408;2022-11-15T07:00:02;53.37;;;25.30;;
19199;SDS011;9732;52.498;5.408;2022-11-15T07:02:30;58.80;;;26.30;;
19199;SDS011;9732;52.498;5.408;2022-11-15T07:04:57;60.07;;;26.93;;
19199;SDS011;9732;52.498;5.408;2022-11-15T07:07:23;59.43;;;26.00;;
19199;SDS011;9732;52.498;5.408;2022-11-15T07:09:50;57.87;;;25.73;;
19199;SDS011;9732;52.498;5.408;2022-11-15T07:12:18;58.83;;;27.07;;
19199;SDS011;9732;52.498;5.408;2022-11-15T07:14:45;56.30;;;26.13;;
19199;SDS011;9732;52.498;5.408;2022-11-15T07:17:12;56.07;;;26.53;;
19199;SDS011;9732;52.498;5.408;2022-11-15T07:19:38;48.83;;;24.83;;
19199;SDS011;9732;52.498;5.408;2022-11-15T07:22:05;60.10;;;27.10;;
19199;SDS011;9732;52.498;5.408;2022-11-15T07:24:32;58.50;;;25.57;;
19199;SDS011;9732;52.498;5.408;2022-11-15T07:26:58;57.70;;;27.57;;
19199;SDS011;9732;52.498;5.408;2022-11-15T07:29:26;61.57;;;25.93;;
19199;SDS011;9732;52.498;5.408;2022-11-15T07:31:53;63.77;;;29.40;;
19199;SDS011;9732;52.498;5.408;2022-11-15T07:34:20;63.03;;;25.50;;
19199;SDS011;9732;52.498;5.408;2022-11-15T07:36:48;57.23;;;26.10;;
19199;SDS011;9732;52.498;5.408;2022-11-15T07:39:15;59.13;;;26.43;;
19199;SDS011;9732;52.498;5.408;2022-11-15T07:41:42;56.50;;;25.63;;
19199;SDS011;9732;52.498;5.408;2022-11-15T07:44:09;60.17;;;26.37;;
19199;SDS011;9732;52.498;5.408;2022-11-15T07:46:40;65.00;;;26.20;;
19199;SDS011;9732;52.498;5.408;2022-11-15T07:49:06;54.40;;;26.20;;
19199;SDS011;9732;52.498;5.408;2022-11-15T07:51:33;59.90;;;26.97;;
19199;SDS011;9732;52.498;5.408;2022-11-15T07:54:00;62.13;;;27.60;;
19199;SDS011;9732;52.498;5.408;2022-11-15T07:56:27;59.00;;;27.17;;
19199;SDS011;9732;52.498;5.408;2022-11-15T07:58:53;55.93;;;25.57;;
19199;SDS011;9732;52.498;5.408;2022-11-15T08:01:20;57.10;;;26.63;;
19199;SDS011;9732;52.498;5.408;2022-11-15T08:03:48;59.50;;;26.67;;
19199;SDS011;9732;52.498;5.408;2022-11-15T08:06:15;57.33;;;27.00;;
19199;SDS011;9732;52.498;5.408;2022-11-15T08:08:41;56.20;;;25.87;;
19199;SDS011;9732;52.498;5.408;2022-11-15T08:11:08;58.70;;;26.37;;
19199;SDS011;9732;52.498;5.408;2022-11-15T08:13:35;56.83;;;26.17;;
19199;SDS011;9732;52.498;5.408;2022-11-15T08:16:02;54.87;;;26.30;;
19199;SDS011;9732;52.498;5.408;2022-11-15T08:18:33;64.83;;;26.10;;
19199;SDS011;9732;52.498;5.408;2022-11-15T08:21:02;62.27;;;25.53;;
19199;SDS011;9732;52.498;5.408;2022-11-15T08:23:29;51.57;;;25.17;;
19199;SDS011;9732;52.498;5.408;2022-11-15T08:26:00;55.07;;;24.33;;
19199;SDS011;9732;52.498;5.408;2022-11-15T08:28:28;53.70;;;25.27;;
19199;SDS011;9732;52.498;5.408;2022-11-15T08:30:55;61.90;;;25.07;;
19199;SDS011;9732;52.498;5.408;2022-11-15T08:33:22;52.57;;;25.17;;
19199;SDS011;9732;52.498;5.408;2022-11-15T08:35:50;49.27;;;24.20;;
19199;SDS011;9732;52.498;5.408;2022-11-15T08:38:19;52.23;;;23.30;;
19199;SDS011;9732;52.498;5.408;2022-11-15T08:40:46;51.70;;;23.60;;
19199;SDS011;9732;52.498;5.408;2022-11-15T08:43:14;49.90;;;23.73;;
19199;SDS011;9732;52.498;5.408;2022-11-15T08:45:43;56.00;;;23.87;;
19199;SDS011;9732;52.498;5.408;2022-11-15T08:48:12;56.77;;;24.37;;
19199;SDS011;9732;52.498;5.408;2022-11-15T08:50:39;48.00;;;21.67;;
19199;SDS011;9732;52.498;5.408;2022-11-15T08:53:08;47.07;;;21.70;;
19199;SDS011;9732;52.498;5.408;2022-11-15T08:55:39;40.87;;;19.37;;
19199;SDS011;9732;52.498;5.408;2022-11-15T08:58:09;45.20;;;21.27;;
19199;SDS011;9732;52.498;5.408;2022-11-15T09:00:37;41.03;;;20.90;;
19199;SDS011;9732;52.498;5.408;2022-11-15T09:03:04;48.73;;;19.87;;
19199;SDS011;9732;52.498;5.408;2022-11-15T09:05:36;44.67;;;20.43;;
19199;SDS011;9732;52.498;5.408;2022-11-15T09:08:05;54.43;;;21.43;;
19199;SDS011;9732;52.498;5.408;2022-11-15T09:10:35;42.43;;;20.20;;
19199;SDS011;9732;52.498;5.408;2022-11-15T09:13:08;42.83;;;19.30;;
19199;SDS011;9732;52.498;5.408;2022-11-15T09:15:35;44.43;;;20.77;;
19199;SDS011;9732;52.498;5.408;2022-11-15T09:18:03;51.40;;;22.13;;
19199;SDS011;9732;52.498;5.408;2022-11-15T09:20:33;50.22;;;21.50;;
19199;SDS011;9732;52.498;5.408;2022-11-15T09:23:01;36.67;;;18.83;;
19199;SDS011;9732;52.498;5.408;2022-11-15T09:25:31;32.85;;;16.05;;
19199;SDS011;9732;52.498;5.408;2022-11-15T09:28:03;24.45;;;13.55;;
19199;SDS011;9732;52.498;5.408;2022-11-15T09:30:35;23.35;;;11.65;;
19199;SDS011;9732;52.498;5.408;2022-11-15T09:33:06;21.40;;;11.45;;
19199;SDS011;9732;52.498;5.408;2022-11-15T09:35:33;23.23;;;11.80;;
19199;SDS011;9732;52.498;5.408;2022-11-15T09:38:01;24.08;;;11.93;;
19199;SDS011;9732;52.498;5.408;2022-11-15T09:40:29;17.50;;;10.60;;
19199;SDS011;9732;52.498;5.408;2022-11-15T09:46:01;19.98;;;9.93;;
19199;SDS011;9732;52.498;5.408;2022-11-15T09:51:26;16.45;;;10.13;;
19199;SDS011;9732;52.498;5.408;2022-11-15T09:53:58;21.27;;;10.00;;
19199;SDS011;9732;52.498;5.408;2022-11-15T09:56:32;18.90;;;10.88;;
19199;SDS011;9732;52.498;5.408;2022-11-15T09:59:08;20.27;;;9.27;;
19199;SDS011;9732;52.498;5.408;2022-11-15T10:01:45;20.13;;;10.13;;
19199;SDS011;9732;52.498;5.408;2022-11-15T10:04:20;16.95;;;9.40;;
19199;SDS011;9732;52.498;5.408;2022-11-15T10:06:51;17.08;;;8.73;;
19199;SDS011;9732;52.498;5.408;2022-11-15T10:09:24;19.52;;;10.23;;
19199;SDS011;9732;52.498;5.408;2022-11-15T10:11:54;20.50;;;10.00;;
19199;SDS011;9732;52.498;5.408;2022-11-15T10:14:23;22.95;;;10.05;;
19199;SDS011;9732;52.498;5.408;2022-11-15T10:17:00;20.38;;;10.23;;
19199;SDS011;9732;52.498;5.408;2022-11-15T10:19:38;20.70;;;9.47;;
19199;SDS011;9732;52.498;5.408;2022-11-15T10:22:20;18.35;;;9.55;;
19199;SDS011;9732;52.498;5.408;2022-11-15T10:24:52;16.90;;;9.67;;
19199;SDS011;9732;52.498;5.408;2022-11-15T10:27:44;22.40;;;10.10;;
19199;SDS011;9732;52.498;5.408;2022-11-15T10:30:18;29.23;;;9.60;;
19199;SDS011;9732;52.498;5.408;2022-11-15T10:32:46;16.93;;;9.47;;
19199;SDS011;9732;52.498;5.408;2022-11-15T10:35:18;26.53;;;10.43;;
19199;SDS011;9732;52.498;5.408;2022-11-15T10:37:47;26.23;;;10.60;;
19199;SDS011;9732;52.498;5.408;2022-11-15T10:40:16;19.55;;;8.70;;
19199;SDS011;9732;52.498;5.408;2022-11-15T10:42:44;15.88;;;9.57;;
19199;SDS011;9732;52.498;5.408;2022-11-15T10:45:27;18.65;;;9.25;;
19199;SDS011;9732;52.498;5.408;2022-11-15T10:48:02;18.05;;;8.63;;
19199;SDS011;9732;52.498;5.408;2022-11-15T10:50:49;20.05;;;9.57;;
19199;SDS011;9732;52.498;5.408;2022-11-15T10:53:18;16.63;;;7.55;;
19199;SDS011;9732;52.498;5.408;2022-11-15T10:55:49;12.75;;;7.38;;
19199;SDS011;9732;52.498;5.408;2022-11-15T10:58:21;13.52;;;7.05;;
19199;SDS011;9732;52.498;5.408;2022-11-15T11:00:58;14.33;;;7.00;;
19199;SDS011;9732;52.498;5.408;2022-11-15T11:03:36;11.15;;;7.43;;
19199;SDS011;9732;52.498;5.408;2022-11-15T11:06:07;11.38;;;6.82;;
19199;SDS011;9732;52.498;5.408;2022-11-15T11:08:35;14.75;;;7.30;;
19199;SDS011;9732;52.498;5.408;2022-11-15T11:11:03;9.80;;;6.90;;
19199;SDS011;9732;52.498;5.408;2022-11-15T11:13:31;14.55;;;6.43;;
19199;SDS011;9732;52.498;5.408;2022-11-15T11:16:03;8.07;;;6.20;;
19199;SDS011;9732;52.498;5.408;2022-11-15T11:18:44;14.20;;;6.18;;
19199;SDS011;9732;52.498;5.408;2022-11-15T11:21:18;12.57;;;5.93;;
19199;SDS011;9732;52.498;5.408;2022-11-15T11:24:03;10.23;;;6.33;;
19199;SDS011;9732;52.498;5.408;2022-11-15T11:26:42;9.73;;;6.32;;
19199;SDS011;9732;52.498;5.408;2022-11-15T11:29:26;9.17;;;5.60;;
19199;SDS011;9732;52.498;5.408;2022-11-15T11:32:07;7.70;;;5.23;;
19199;SDS011;9732;52.498;5.408;2022-11-15T11:34:52;10.23;;;4.90;;
19199;SDS011;9732;52.498;5.408;2022-11-15T11:37:29;12.35;;;4.45;;
19199;SDS011;9732;52.498;5.408;2022-11-15T11:40:05;6.65;;;4.32;;
19199;SDS011;9732;52.498;5.408;2022-11-15T11:42:43;9.70;;;4.40;;
19199;SDS011;9732;52.498;5.408;2022-11-15T11:45:21;10.57;;;4.57;;
19199;SDS011;9732;52.498;5.408;2022-11-15T11:47:55;9.67;;;4.20;;
19199;SDS011;9732;52.498;5.408;2022-11-15T11:50:30;5.45;;;3.63;;
19199;SDS011;9732;52.498;5.408;2022-11-15T11:52:58;8.87;;;3.80;;
19199;SDS011;9732;52.498;5.408;2022-11-15T11:55:31;5.75;;;3.60;;
19199;SDS011;9732;52.498;5.408;2022-11-15T11:58:05;7.05;;;3.55;;
19199;SDS011;9732;52.498;5.408;2022-11-15T12:00:39;5.90;;;3.63;;
19199;SDS011;9732;52.498;5.408;2022-11-15T12:03:11;5.50;;;3.38;;
19199;SDS011;9732;52.498;5.408;2022-11-15T12:05:43;4.63;;;2.85;;
19199;SDS011;9732;52.498;5.408;2022-11-15T12:08:22;8.60;;;3.30;;
19199;SDS011;9732;52.498;5.408;2022-11-15T12:11:00;5.60;;;3.25;;
19199;SDS011;9732;52.498;5.408;2022-11-15T12:13:33;5.32;;;2.72;;
19199;SDS011;9732;52.498;5.408;2022-11-15T12:16:03;6.07;;;3.53;;
19199;SDS011;9732;52.498;5.408;2022-11-15T12:18:35;7.03;;;3.00;;
19199;SDS011;9732;52.498;5.408;2022-11-15T12:21:06;4.95;;;3.00;;
19199;SDS011;9732;52.498;5.408;2022-11-15T12:23:46;9.10;;;3.00;;
19199;SDS011;9732;52.498;5.408;2022-11-15T12:26:16;3.65;;;2.58;;
19199;SDS011;9732;52.498;5.408;2022-11-15T12:28:47;5.72;;;2.58;;
19199;SDS011;9732;52.498;5.408;2022-11-15T12:31:21;4.72;;;2.70;;
19199;SDS011;9732;52.498;5.408;2022-11-15T12:33:54;4.75;;;2.78;;
19199;SDS011;9732;52.498;5.408;2022-11-15T12:36:33;4.43;;;2.90;;
19199;SDS011;9732;52.498;5.408;2022-11-15T12:39:04;7.78;;;2.53;;
19199;SDS011;9732;52.498;5.408;2022-11-15T12:41:31;5.50;;;3.03;;
19199;SDS011;9732;52.498;5.408;2022-11-15T12:43:59;6.57;;;2.80;;
19199;SDS011;9732;52.498;5.408;2022-11-15T12:49:44;4.65;;;2.63;;
19199;SDS011;9732;52.498;5.408;2022-11-15T12:52:12;5.85;;;2.97;;
19199;SDS011;9732;52.498;5.408;2022-11-15T13:03:16;4.78;;;2.30;;
19199;SDS011;9732;52.498;5.408;2022-11-15T13:06:34;4.45;;;2.40;;
19199;SDS011;9732;52.498;5.408;2022-11-15T13:12:07;7.90;;;2.50;;
19199;SDS011;9732;52.498;5.408;2022-11-15T13:14:45;6.00;;;2.70;;
19199;SDS011;9732;52.498;5.408;2022-11-15T13:17:34;5.47;;;2.38;;
19199;SDS011;9732;52.498;5.408;2022-11-15T13:22:59;7.35;;;2.67;;
19199;SDS011;9732;52.498;5.408;2022-11-15T13:28:31;6.68;;;2.50;;
19199;SDS011;9732;52.498;5.408;2022-11-15T13:31:13;8.20;;;2.40;;
19199;SDS011;9732;52.498;5.408;2022-11-15T13:33:55;6.35;;;2.67;;
19199;SDS011;9732;52.498;5.408;2022-11-15T13:36:25;3.15;;;1.90;;
19199;SDS011;9732;52.498;5.408;2022-11-15T13:38:57;7.03;;;2.63;;
19199;SDS011;9732;52.498;5.408;2022-11-15T13:41:26;5.90;;;2.58;;
19199;SDS011;9732;52.498;5.408;2022-11-15T13:43:54;6.47;;;2.50;;
19199;SDS011;9732;52.498;5.408;2022-11-15T13:46:22;7.53;;;2.30;;
19199;SDS011;9732;52.498;5.408;2022-11-15T13:48:52;6.10;;;2.40;;
19199;SDS011;9732;52.498;5.408;2022-11-15T13:51:21;4.00;;;1.65;;
19199;SDS011;9732;52.498;5.408;2022-11-15T13:53:54;7.65;;;2.17;;
19199;SDS011;9732;52.498;5.408;2022-11-15T13:56:27;7.20;;;2.45;;
19199;SDS011;9732;52.498;5.408;2022-11-15T13:58:55;5.90;;;2.17;;
19199;SDS011;9732;52.498;5.408;2022-11-15T14:01:22;4.82;;;1.83;;
19199;SDS011;9732;52.498;5.408;2022-11-15T14:03:54;3.30;;;1.85;;
19199;SDS011;9732;52.498;5.408;2022-11-15T14:06:23;8.07;;;1.90;;
19199;SDS011;9732;52.498;5.408;2022-11-15T14:09:16;7.40;;;1.92;;
19199;SDS011;9732;52.498;5.408;2022-11-15T14:11:59;5.25;;;2.05;;
19199;SDS011;9732;52.498;5.408;2022-11-15T14:14:27;7.13;;;2.47;;
19199;SDS011;9732;52.498;5.408;2022-11-15T14:16:55;4.95;;;1.60;;
19199;SDS011;9732;52.498;5.408;2022-11-15T14:19:34;5.47;;;1.55;;
19199;SDS011;9732;52.498;5.408;2022-11-15T14:22:10;6.03;;;2.10;;
19199;SDS011;9732;52.498;5.408;2022-11-15T14:24:41;7.03;;;2.13;;
19199;SDS011;9732;52.498;5.408;2022-11-15T14:27:16;7.43;;;1.85;;
19199;SDS011;9732;52.498;5.408;2022-11-15T14:29:48;6.50;;;2.10;;
19199;SDS011;9732;52.498;5.408;2022-11-15T14:32:16;3.67;;;2.03;;
19199;SDS011;9732;52.498;5.408;2022-11-15T14:34:44;3.80;;;1.33;;
19199;SDS011;9732;52.498;5.408;2022-11-15T14:37:21;5.95;;;1.63;;
19199;SDS011;9732;52.498;5.408;2022-11-15T14:39:51;2.95;;;1.48;;
19199;SDS011;9732;52.498;5.408;2022-11-15T14:42:19;3.38;;;1.23;;
19199;SDS011;9732;52.498;5.408;2022-11-15T14:44:47;3.15;;;1.30;;
19199;SDS011;9732;52.498;5.408;2022-11-15T14:47:14;7.83;;;1.40;;
19199;SDS011;9732;52.498;5.408;2022-11-15T14:49:41;4.17;;;1.67;;
19199;SDS011;9732;52.498;5.408;2022-11-15T14:52:23;2.77;;;1.20;;
19199;SDS011;9732;52.498;5.408;2022-11-15T14:54:54;3.87;;;1.80;;
19199;SDS011;9732;52.498;5.408;2022-11-15T14:57:23;4.32;;;1.52;;
19199;SDS011;9732;52.498;5.408;2022-11-15T14:59:50;4.30;;;1.47;;
19199;SDS011;9732;52.498;5.408;2022-11-15T15:02:19;4.13;;;1.40;;
19199;SDS011;9732;52.498;5.408;2022-11-15T15:04:47;2.83;;;1.40;;
19199;SDS011;9732;52.498;5.408;2022-11-15T15:07:14;4.80;;;1.55;;
19199;SDS011;9732;52.498;5.408;2022-11-15T15:09:42;5.85;;;1.48;;
19199;SDS011;9732;52.498;5.408;2022-11-15T15:12:14;4.07;;;1.40;;
19199;SDS011;9732;52.498;5.408;2022-11-15T15:14:42;1.55;;;1.17;;
19199;SDS011;9732;52.498;5.408;2022-11-15T15:17:09;3.80;;;1.33;;
19199;SDS011;9732;52.498;5.408;2022-11-15T15:19:37;5.10;;;1.40;;
19199;SDS011;9732;52.498;5.408;2022-11-15T15:22:05;6.55;;;1.40;;
19199;SDS011;9732;52.498;5.408;2022-11-15T15:24:35;4.80;;;1.25;;
19199;SDS011;9732;52.498;5.408;2022-11-15T15:27:03;4.40;;;1.60;;
19199;SDS011;9732;52.498;5.408;2022-11-15T15:29:32;5.22;;;1.30;;
19199;SDS011;9732;52.498;5.408;2022-11-15T15:31:59;5.60;;;1.98;;